Overview Statistics Trail Chart Weather Telemetry Raw packets
 

This is the latest recevied weather packets stored in our database for station/object HB9GPU-10. If no packets are shown the sender has not sent any weather packets the latest 10 day(s).

<< 4 5 6 7 8 9 10 >>
Time Temp. Humidity Pressure Rain* Wind** Luminosity Snow
1788534259 29.44° C 25% 1021 hPa - - - -
1788533359 30° C 23% 1021 hPa - - - -
1788532458 28.89° C 25% 1021.1 hPa - - - -
1788531558 28.33° C 24% 1021.2 hPa - - - -
1788530658 29.44° C 23% 1021.3 hPa - - - -
1788529758 28.33° C 24% 1021.4 hPa - - - -
1788528858 28.33° C 26% 1021.5 hPa - - - -
1788527958 28.33° C 26% 1021.6 hPa - - - -
1788527057 28.33° C 26% 1021.7 hPa - - - -
1788526157 27.78° C 28% 1021.9 hPa - - - -
1788525257 27.22° C 28% 1022.2 hPa - - - -
1788524357 27.22° C 28% 1022.4 hPa - - - -
1788523457 27.22° C 29% 1022.6 hPa - - - -
1788522557 27.22° C 29% 1022.8 hPa - - - -
1788521656 26.67° C 29% 1023 hPa - - - -
1788520771 26.11° C 31% 1023.3 hPa - - - -
1788519856 26.11° C 30% 1023.5 hPa - - - -
1788518956 26.11° C 30% 1023.9 hPa - - - -
1788518056 26.11° C 30% 1024.2 hPa - - - -
1788517155 25.56° C 31% 1024.3 hPa - - - -
1788516255 25° C 32% 1024.6 hPa - - - -
1788515355 25° C 31% 1024.9 hPa - - - -
1788514455 25.56° C 30% 1025.2 hPa - - - -
1788513555 25° C 31% 1025.5 hPa - - - -
1788512655 23.89° C 34% 1025.6 hPa - - - -

* Rain since midnight (hover to see other rain measurements)
** Current wind speed in m/s (hover to see current wind gust speed)